createdAt,value
2023-05-04T00:02:00.739Z,53.66
2023-05-04T00:04:27.630Z,53.98
2023-05-04T00:06:54.848Z,53.97
2023-05-04T00:09:21.220Z,53.84
2023-05-04T00:11:47.905Z,53.90
2023-05-04T00:14:15.793Z,53.71
2023-05-04T00:16:42.675Z,53.75
2023-05-04T00:19:09.363Z,53.90
2023-05-04T00:21:35.766Z,53.80
2023-05-04T00:24:02.436Z,54.15
2023-05-04T00:26:29.150Z,53.95
2023-05-04T00:28:57.408Z,53.90
2023-05-04T00:31:24.255Z,53.68
2023-05-04T00:33:51.342Z,53.93
2023-05-04T00:36:17.852Z,53.90
2023-05-04T00:38:44.393Z,54.06
2023-05-04T00:41:10.909Z,53.89
2023-05-04T00:43:37.332Z,53.42
2023-05-04T00:46:03.722Z,54.08
2023-05-04T00:48:32.285Z,53.82
2023-05-04T00:50:58.754Z,53.91
2023-05-04T00:53:25.175Z,53.70
2023-05-04T00:55:51.632Z,53.89
2023-05-04T00:58:18.307Z,53.81
2023-05-04T01:00:44.746Z,53.81
2023-05-04T01:03:14.010Z,53.94
2023-05-04T01:05:40.529Z,53.90
2023-05-04T01:08:06.958Z,53.97
2023-05-04T01:10:33.383Z,53.91
2023-05-04T01:12:59.896Z,53.99
2023-05-04T01:15:26.644Z,53.94
2023-05-04T01:17:53.217Z,53.77
2023-05-04T01:20:19.675Z,53.82
2023-05-04T01:22:46.551Z,54.05
2023-05-04T01:25:13.160Z,53.82
2023-05-04T01:27:39.943Z,54.01
2023-05-04T01:30:06.665Z,53.96
2023-05-04T01:32:33.361Z,53.64
2023-05-04T01:34:59.768Z,53.94
2023-05-04T01:37:26.282Z,53.62
2023-05-04T01:39:52.691Z,53.58
2023-05-04T01:42:19.359Z,54.02
2023-05-04T01:44:45.934Z,53.84
2023-05-04T01:47:12.298Z,53.72
2023-05-04T01:49:38.651Z,53.59
2023-05-04T01:52:05.078Z,53.76
2023-05-04T01:54:31.485Z,54.16
2023-05-04T01:56:57.891Z,53.64
2023-05-04T01:59:24.328Z,53.64
2023-05-04T02:01:51.000Z,53.81
2023-05-04T02:04:17.446Z,53.72
2023-05-04T02:06:44.059Z,53.62
2023-05-04T02:09:10.460Z,53.86
2023-05-04T02:11:37.015Z,53.85
2023-05-04T02:14:03.552Z,53.92
2023-05-04T02:16:29.991Z,54.02
2023-05-04T02:18:56.470Z,53.75
2023-05-04T02:21:23.057Z,53.83
2023-05-04T02:23:49.380Z,53.56
2023-05-04T02:26:16.051Z,53.74
2023-05-04T02:28:42.571Z,53.88
2023-05-04T02:31:09.009Z,53.82
2023-05-04T02:33:35.429Z,53.80
2023-05-04T02:36:01.873Z,53.79
2023-05-04T02:38:28.358Z,53.82
2023-05-04T02:40:54.990Z,53.51
2023-05-04T02:43:21.523Z,53.57
2023-05-04T02:45:47.971Z,53.90
2023-05-04T02:48:14.939Z,53.93
2023-05-04T02:50:41.453Z,53.56
2023-05-04T02:53:08.082Z,53.87
2023-05-04T02:55:34.752Z,53.57
2023-05-04T02:58:01.187Z,53.61
2023-05-04T03:00:27.508Z,53.69
2023-05-04T03:02:53.934Z,53.67
2023-05-04T03:05:20.333Z,53.82
2023-05-04T03:07:46.672Z,53.65
2023-05-04T03:10:15.095Z,53.64
2023-05-04T03:12:41.532Z,53.57
2023-05-04T03:15:08.142Z,53.81
2023-05-04T03:17:34.573Z,53.92
2023-05-04T03:20:03.939Z,53.83
2023-05-04T03:22:30.676Z,53.92
2023-05-04T03:24:57.113Z,53.85
2023-05-04T03:27:23.760Z,53.64
2023-05-04T03:29:50.146Z,53.86
2023-05-04T03:32:16.850Z,53.86
2023-05-04T03:34:43.260Z,53.81
2023-05-04T03:37:09.724Z,53.81
2023-05-04T03:39:36.204Z,53.65
2023-05-04T03:42:02.803Z,53.68
2023-05-04T03:44:29.269Z,53.81
2023-05-04T03:46:56.108Z,53.66
2023-05-04T03:49:22.560Z,53.67
2023-05-04T03:51:48.960Z,53.54
2023-05-04T03:54:15.351Z,53.49
2023-05-04T03:56:41.709Z,53.46
2023-05-04T03:59:08.307Z,53.65
2023-05-04T04:01:34.701Z,53.63
2023-05-04T04:04:01.347Z,53.46
2023-05-04T04:06:27.793Z,53.50
2023-05-04T04:08:54.590Z,53.66
2023-05-04T04:11:24.155Z,53.68
2023-05-04T04:13:50.485Z,53.80
2023-05-04T04:16:16.969Z,53.52
2023-05-04T04:18:43.703Z,53.66
2023-05-04T04:21:10.073Z,53.79
2023-05-04T04:23:36.958Z,53.50
2023-05-04T04:26:04.656Z,53.50
2023-05-04T04:28:31.226Z,53.69
2023-05-04T04:30:57.694Z,53.77
2023-05-04T04:33:24.101Z,53.54
2023-05-04T04:35:50.623Z,53.51
2023-05-04T04:38:17.124Z,53.59
2023-05-04T04:40:43.434Z,53.52
2023-05-04T04:43:09.837Z,53.91
2023-05-04T04:45:36.222Z,53.68
2023-05-04T04:48:02.659Z,53.71
2023-05-04T04:50:29.232Z,53.62
2023-05-04T04:52:55.628Z,53.62
2023-05-04T04:55:22.320Z,53.57
2023-05-04T04:57:48.873Z,53.62
2023-05-04T05:00:15.323Z,53.75
2023-05-04T05:02:41.812Z,53.72
2023-05-04T05:05:08.352Z,53.60
2023-05-04T05:07:34.800Z,53.71
2023-05-04T05:10:01.294Z,53.43
2023-05-04T05:12:28.457Z,53.65
2023-05-04T05:14:55.063Z,53.86
2023-05-04T05:17:21.430Z,53.83
2023-05-04T05:19:47.806Z,53.66
2023-05-04T05:22:14.276Z,53.80
2023-05-04T05:24:40.610Z,53.88
2023-05-04T05:27:07.181Z,53.94
2023-05-04T05:29:33.558Z,53.75
2023-05-04T05:32:00.003Z,53.84
2023-05-04T05:34:26.370Z,53.83
2023-05-04T05:36:52.849Z,53.55
2023-05-04T05:39:19.220Z,53.57
2023-05-04T05:41:46.598Z,53.33
2023-05-04T05:44:13.236Z,53.45
2023-05-04T05:46:40.000Z,53.14
2023-05-04T05:49:07.310Z,53.45
2023-05-04T05:51:33.980Z,53.50
2023-05-04T05:54:00.815Z,53.47
2023-05-04T05:56:27.374Z,53.32
2023-05-04T05:58:53.734Z,53.10
2023-05-04T06:01:20.347Z,53.40
2023-05-04T06:03:46.989Z,53.14
2023-05-04T06:06:13.689Z,53.46
2023-05-04T06:08:40.091Z,53.09
2023-05-04T06:11:06.567Z,53.43
2023-05-04T06:13:33.072Z,53.42
2023-05-04T06:15:59.838Z,53.39
2023-05-04T06:18:26.600Z,53.39
2023-05-04T06:20:52.969Z,53.24
2023-05-04T06:23:19.298Z,53.22
2023-05-04T06:25:45.649Z,53.38
2023-05-04T06:28:12.112Z,53.25
2023-05-04T06:30:38.595Z,53.29
2023-05-04T06:33:05.163Z,53.28
2023-05-04T06:35:31.766Z,53.23
2023-05-04T06:37:58.748Z,53.49
2023-05-04T06:40:25.127Z,53.59
2023-05-04T06:42:51.823Z,53.33
2023-05-04T06:45:18.481Z,53.18
2023-05-04T06:47:44.847Z,53.52
2023-05-04T06:50:11.514Z,53.53
2023-05-04T06:52:37.909Z,53.61
2023-05-04T06:55:04.361Z,53.21
2023-05-04T06:57:30.777Z,53.45
2023-05-04T06:59:58.546Z,53.55
2023-05-04T07:02:25.147Z,59.33
2023-05-04T07:04:51.891Z,53.51
2023-05-04T07:07:18.244Z,53.45
2023-05-04T07:09:44.639Z,53.60
2023-05-04T07:12:11.362Z,53.32
2023-05-04T07:14:38.276Z,53.39
2023-05-04T07:17:04.890Z,53.65
2023-05-04T07:19:31.308Z,53.42
2023-05-04T07:21:57.673Z,53.60
2023-05-04T07:24:24.215Z,53.39
2023-05-04T07:26:50.710Z,53.27
2023-05-04T07:29:17.588Z,53.53
2023-05-04T07:31:45.179Z,53.71
2023-05-04T07:34:13.214Z,53.71
2023-05-04T07:36:41.986Z,53.56
2023-05-04T07:39:09.677Z,53.19
2023-05-04T07:41:36.075Z,53.32
2023-05-04T07:44:02.575Z,53.04
2023-05-04T07:46:28.976Z,53.34
2023-05-04T07:48:55.419Z,52.97
2023-05-04T07:51:22.082Z,52.92
2023-05-04T07:53:48.549Z,52.85
2023-05-04T07:56:14.965Z,52.66
2023-05-04T07:58:41.317Z,52.56
2023-05-04T08:01:07.693Z,52.74
2023-05-04T08:03:34.147Z,52.48
2023-05-04T08:06:00.830Z,52.64
2023-05-04T08:08:27.270Z,52.77
2023-05-04T08:10:55.019Z,52.56
2023-05-04T08:13:22.558Z,52.42
2023-05-04T08:15:49.288Z,52.68
2023-05-04T08:18:16.804Z,52.67
2023-05-04T08:20:43.158Z,52.72
2023-05-04T08:23:09.581Z,52.75
2023-05-04T08:25:35.976Z,52.71
2023-05-04T08:28:02.447Z,52.77
2023-05-04T08:30:28.878Z,52.77
2023-05-04T08:32:55.423Z,52.90
2023-05-04T08:35:21.807Z,52.58
2023-05-04T08:37:48.114Z,52.70
2023-05-04T08:40:14.679Z,52.75
2023-05-04T08:42:41.644Z,52.88
2023-05-04T08:45:08.762Z,52.85
2023-05-04T08:47:35.232Z,52.82
2023-05-04T08:50:01.604Z,53.03
2023-05-04T08:52:28.264Z,53.06
2023-05-04T08:54:54.753Z,52.86
2023-05-04T08:57:21.142Z,53.05
2023-05-04T08:59:47.804Z,53.27
2023-05-04T09:02:14.641Z,53.14
2023-05-04T09:04:41.181Z,53.07
2023-05-04T09:07:07.619Z,53.26
2023-05-04T09:09:34.068Z,53.15
2023-05-04T09:12:00.766Z,53.01
2023-05-04T09:14:28.912Z,53.16
2023-05-04T09:16:55.332Z,53.26
2023-05-04T09:19:22.081Z,53.05
2023-05-04T09:21:48.402Z,53.51
2023-05-04T09:24:14.995Z,53.50
2023-05-04T09:26:41.556Z,53.46
2023-05-04T09:29:07.990Z,53.24
2023-05-04T09:31:34.469Z,53.12
2023-05-04T09:34:01.299Z,53.18
2023-05-04T09:36:27.891Z,53.22
2023-05-04T09:38:54.849Z,53.30
2023-05-04T09:41:21.344Z,53.36
2023-05-04T09:43:47.680Z,53.23
2023-05-04T09:46:14.096Z,53.43
2023-05-04T09:48:40.794Z,53.14
2023-05-04T09:51:07.118Z,53.38
2023-05-04T09:53:33.512Z,53.30
2023-05-04T09:56:02.503Z,53.37
2023-05-04T09:58:30.012Z,53.37
2023-05-04T10:00:56.351Z,53.33
2023-05-04T10:03:22.735Z,53.25
2023-05-04T10:05:52.957Z,53.26
2023-05-04T10:08:19.392Z,53.24
2023-05-04T10:10:46.017Z,53.08
2023-05-04T10:13:12.449Z,53.01
2023-05-04T10:15:39.011Z,53.21
2023-05-04T10:18:05.587Z,53.07
2023-05-04T10:20:32.212Z,53.08
2023-05-04T10:22:59.074Z,53.30
2023-05-04T10:25:25.789Z,53.30
2023-05-04T10:27:52.163Z,53.05
2023-05-04T10:30:18.505Z,53.14
2023-05-04T10:32:45.154Z,53.35
2023-05-04T10:35:11.790Z,53.37
2023-05-04T10:37:38.258Z,53.36
2023-05-04T10:40:05.510Z,53.37
2023-05-04T10:42:33.691Z,53.09
2023-05-04T10:45:01.948Z,53.13
2023-05-04T10:47:28.335Z,53.26
2023-05-04T10:49:56.023Z,53.20
2023-05-04T10:52:22.485Z,53.19
2023-05-04T10:54:48.827Z,53.27
2023-05-04T10:57:18.593Z,53.37
2023-05-04T10:59:44.913Z,53.34
2023-05-04T11:02:15.232Z,53.46
2023-05-04T11:04:41.604Z,53.28
2023-05-04T11:07:10.898Z,53.35
2023-05-04T11:09:37.197Z,53.46
2023-05-04T11:12:03.579Z,53.28
2023-05-04T11:14:39.788Z,53.39
2023-05-04T11:17:19.701Z,53.32
2023-05-04T11:19:52.676Z,53.36
2023-05-04T11:22:19.108Z,53.17
2023-05-04T11:24:45.453Z,53.36
2023-05-04T11:27:11.858Z,53.52
2023-05-04T11:29:38.443Z,53.36
2023-05-04T11:32:05.489Z,53.58
2023-05-04T11:34:32.164Z,53.42
2023-05-04T11:36:58.720Z,53.69
2023-05-04T11:39:25.456Z,53.43
2023-05-04T11:41:52.030Z,53.49
2023-05-04T11:44:18.574Z,53.42
2023-05-04T11:46:45.079Z,53.67
2023-05-04T11:49:11.770Z,53.50
2023-05-04T11:51:38.326Z,53.43
2023-05-04T11:54:04.901Z,53.69
2023-05-04T11:56:31.605Z,53.64
2023-05-04T11:58:57.923Z,53.65
2023-05-04T12:01:24.287Z,53.58
2023-05-04T12:03:53.794Z,53.71
2023-05-04T12:06:20.984Z,53.81
2023-05-04T12:08:47.619Z,53.54
2023-05-04T12:11:14.133Z,53.75
2023-05-04T12:13:40.517Z,53.81
2023-05-04T12:16:06.868Z,53.93
2023-05-04T12:18:33.233Z,53.88
2023-05-04T12:20:59.723Z,53.65
2023-05-04T12:23:26.165Z,53.85
2023-05-04T12:25:58.243Z,53.52
2023-05-04T12:28:25.040Z,53.93
2023-05-04T12:30:51.411Z,54.03
2023-05-04T12:33:20.078Z,53.66
2023-05-04T12:35:46.824Z,53.79
2023-05-04T12:38:13.766Z,54.00
2023-05-04T12:40:40.635Z,53.92
2023-05-04T12:43:07.216Z,54.04
2023-05-04T12:45:33.827Z,53.88
2023-05-04T12:48:00.426Z,53.89
2023-05-04T12:50:26.941Z,54.00
2023-05-04T12:52:53.594Z,54.09
2023-05-04T12:55:20.042Z,54.01
2023-05-04T12:57:46.476Z,54.02
2023-05-04T13:00:13.249Z,54.00
2023-05-04T13:02:39.728Z,54.05
2023-05-04T13:05:06.423Z,54.17
2023-05-04T13:07:33.003Z,54.17
2023-05-04T13:09:59.322Z,53.92
2023-05-04T13:12:25.780Z,54.04
2023-05-04T13:14:52.189Z,54.04
2023-05-04T13:17:18.778Z,54.10
2023-05-04T13:19:45.335Z,54.12
2023-05-04T13:22:11.679Z,54.19
2023-05-04T13:24:38.226Z,54.17
2023-05-04T13:27:04.786Z,54.32
2023-05-04T13:29:31.143Z,54.13
2023-05-04T13:31:57.731Z,54.31
2023-05-04T13:34:24.186Z,54.16
2023-05-04T13:36:50.639Z,54.34
2023-05-04T13:39:17.115Z,54.34
2023-05-04T13:41:43.413Z,54.50
2023-05-04T13:44:09.882Z,54.46
2023-05-04T13:46:36.292Z,54.51
2023-05-04T13:49:02.643Z,54.38
2023-05-04T13:51:28.946Z,54.56
2023-05-04T13:53:55.416Z,54.54
2023-05-04T13:56:21.767Z,54.63
2023-05-04T13:58:48.194Z,54.23
2023-05-04T14:01:14.764Z,54.60
2023-05-04T14:03:41.260Z,54.37
2023-05-04T14:06:07.738Z,54.71
2023-05-04T14:08:34.354Z,54.44
2023-05-04T14:11:03.765Z,54.56
2023-05-04T14:13:30.537Z,54.53
2023-05-04T14:15:57.117Z,54.80
2023-05-04T14:18:23.552Z,54.67
2023-05-04T14:20:50.915Z,54.66
2023-05-04T14:23:17.830Z,54.77
2023-05-04T14:25:44.273Z,54.62
2023-05-04T14:28:10.900Z,54.88
2023-05-04T14:30:37.202Z,54.73
2023-05-04T14:33:04.106Z,54.75
2023-05-04T14:35:30.653Z,54.69
2023-05-04T14:37:57.050Z,54.87
2023-05-04T14:40:23.332Z,54.72
2023-05-04T14:42:49.722Z,55.03
2023-05-04T14:45:16.092Z,54.80
2023-05-04T14:47:42.661Z,54.94
2023-05-04T14:50:09.390Z,54.75
2023-05-04T14:52:36.088Z,55.11
2023-05-04T14:55:02.814Z,55.07
2023-05-04T14:57:29.367Z,54.81
2023-05-04T14:59:55.699Z,55.06
2023-05-04T15:02:22.219Z,54.81
2023-05-04T15:04:48.785Z,54.97
2023-05-04T15:07:15.183Z,54.86
2023-05-04T15:09:41.646Z,54.84
2023-05-04T15:12:08.104Z,55.16
2023-05-04T15:14:34.601Z,55.01
2023-05-04T15:17:01.169Z,54.91
2023-05-04T15:19:27.905Z,54.98
2023-05-04T15:21:54.245Z,55.03
2023-05-04T15:24:20.668Z,55.23
2023-05-04T15:26:47.420Z,54.95
2023-05-04T15:29:13.822Z,55.20
2023-05-04T15:31:40.354Z,55.25
2023-05-04T15:34:06.792Z,55.20
2023-05-04T15:36:33.379Z,55.16
2023-05-04T15:39:00.474Z,54.39
2023-05-04T15:41:29.150Z,53.07
2023-05-04T15:43:55.705Z,52.43
2023-05-04T15:46:22.482Z,52.63
2023-05-04T15:48:49.186Z,52.55
2023-05-04T15:51:15.741Z,52.40
2023-05-04T15:53:42.691Z,52.35
2023-05-04T15:56:09.056Z,51.67
2023-05-04T15:58:35.781Z,51.99
2023-05-04T16:01:02.300Z,51.86
2023-05-04T16:03:28.767Z,51.11
2023-05-04T16:05:55.369Z,51.08
2023-05-04T16:08:22.145Z,50.94
2023-05-04T16:10:48.820Z,51.07
2023-05-04T16:13:15.210Z,51.21
2023-05-04T16:15:44.846Z,51.14
2023-05-04T16:18:11.216Z,51.14
2023-05-04T16:20:37.857Z,51.34
2023-05-04T16:23:04.250Z,51.40
2023-05-04T16:25:30.863Z,51.50
2023-05-04T16:28:05.221Z,51.51
2023-05-04T16:30:31.502Z,51.34
2023-05-04T16:32:58.479Z,51.55
2023-05-04T16:35:25.138Z,51.53
2023-05-04T16:37:51.677Z,51.65
2023-05-04T16:40:18.026Z,51.61
2023-05-04T16:42:44.365Z,51.75
2023-05-04T16:45:10.831Z,51.91
2023-05-04T16:47:37.563Z,52.02
2023-05-04T16:50:03.981Z,51.96
2023-05-04T16:52:30.471Z,51.79
2023-05-04T16:54:56.914Z,51.82
2023-05-04T16:57:23.298Z,52.25
2023-05-04T16:59:49.664Z,52.05
2023-05-04T17:02:16.309Z,51.91
2023-05-04T17:04:42.774Z,52.36
2023-05-04T17:07:10.909Z,52.49
2023-05-04T17:09:37.494Z,52.27
2023-05-04T17:12:04.252Z,52.49
2023-05-04T17:14:30.703Z,52.47
2023-05-04T17:16:57.382Z,52.26
2023-05-04T17:19:26.349Z,52.21
2023-05-04T17:21:52.757Z,52.69
2023-05-04T17:24:19.480Z,52.38
2023-05-04T17:26:45.882Z,52.41
2023-05-04T17:29:12.529Z,52.82
2023-05-04T17:31:39.074Z,52.69
2023-05-04T17:34:05.550Z,52.62
2023-05-04T17:36:31.984Z,52.85
2023-05-04T17:38:58.590Z,52.69
2023-05-04T17:41:26.702Z,52.63
2023-05-04T17:43:53.136Z,52.95
2023-05-04T17:46:19.527Z,52.98
2023-05-04T17:48:46.191Z,52.86
2023-05-04T17:51:12.666Z,52.93
2023-05-04T17:53:39.392Z,52.72
2023-05-04T17:56:05.937Z,52.83
2023-05-04T17:58:32.532Z,52.75
2023-05-04T18:00:59.027Z,53.07
2023-05-04T18:03:25.501Z,52.73
2023-05-04T18:05:52.481Z,52.94
2023-05-04T18:08:19.069Z,52.92
2023-05-04T18:10:45.480Z,53.25
2023-05-04T18:13:12.017Z,53.28
2023-05-04T18:15:39.426Z,53.10
2023-05-04T18:18:05.990Z,52.93
2023-05-04T18:20:32.439Z,53.18
2023-05-04T18:22:58.951Z,53.28
2023-05-04T18:25:25.275Z,53.26
2023-05-04T18:27:51.681Z,53.18
2023-05-04T18:30:18.084Z,52.95
2023-05-04T18:32:44.652Z,53.22
2023-05-04T18:35:11.131Z,53.03
2023-05-04T18:37:37.607Z,52.99
2023-05-04T18:40:04.123Z,53.08
2023-05-04T18:42:30.750Z,53.15
2023-05-04T18:44:57.528Z,53.37
2023-05-04T18:47:24.173Z,53.24
2023-05-04T18:49:50.640Z,53.30
2023-05-04T18:52:17.448Z,53.11
2023-05-04T18:54:43.773Z,53.36
2023-05-04T18:57:10.120Z,53.11
2023-05-04T18:59:37.042Z,53.22
2023-05-04T19:02:03.360Z,53.15
2023-05-04T19:04:29.653Z,52.91
2023-05-04T19:06:56.129Z,53.26
2023-05-04T19:09:22.549Z,53.16
2023-05-04T19:11:53.272Z,53.19
2023-05-04T19:14:19.689Z,53.07
2023-05-04T19:16:46.183Z,53.17
2023-05-04T19:19:12.858Z,53.16
2023-05-04T19:21:39.754Z,53.50
2023-05-04T19:24:06.187Z,53.42
2023-05-04T19:26:32.648Z,53.49
2023-05-04T19:28:59.123Z,53.14
2023-05-04T19:31:25.704Z,53.18
2023-05-04T19:33:52.395Z,53.44
2023-05-04T19:36:19.382Z,53.27
2023-05-04T19:38:45.923Z,53.43
2023-05-04T19:41:12.384Z,53.25
2023-05-04T19:43:38.722Z,53.39
2023-05-04T19:46:05.070Z,53.42
2023-05-04T19:48:31.497Z,53.30
2023-05-04T19:50:59.509Z,53.40
2023-05-04T19:53:26.687Z,53.43
2023-05-04T19:55:53.042Z,53.31
2023-05-04T19:58:19.464Z,53.41
2023-05-04T20:00:46.038Z,53.23
2023-05-04T20:03:12.435Z,53.56
2023-05-04T20:05:39.175Z,53.37
2023-05-04T20:08:07.221Z,53.60
2023-05-04T20:10:33.733Z,53.49
2023-05-04T20:13:04.965Z,53.63
2023-05-04T20:15:31.475Z,53.34
2023-05-04T20:17:58.220Z,53.35
2023-05-04T20:20:24.737Z,53.30
2023-05-04T20:22:51.375Z,53.51
2023-05-04T20:25:17.806Z,53.33
2023-05-04T20:27:44.234Z,53.61
2023-05-04T20:30:10.915Z,53.63
2023-05-04T20:32:37.318Z,53.59
2023-05-04T20:35:03.823Z,53.48
2023-05-04T20:37:30.260Z,53.47
2023-05-04T20:39:56.773Z,53.56
2023-05-04T20:42:23.251Z,53.58
2023-05-04T20:44:49.608Z,53.45
2023-05-04T20:47:16.457Z,53.63
2023-05-04T20:49:42.914Z,53.66
2023-05-04T20:52:09.180Z,53.70
2023-05-04T20:54:35.848Z,53.49
2023-05-04T20:57:06.000Z,53.63
2023-05-04T20:59:32.449Z,53.76
2023-05-04T21:02:00.719Z,53.39
2023-05-04T21:04:27.570Z,53.73
2023-05-04T21:06:53.948Z,53.61
2023-05-04T21:09:20.324Z,53.60
2023-05-04T21:11:46.772Z,53.58
2023-05-04T21:14:14.542Z,53.75
2023-05-04T21:16:41.322Z,53.52
2023-05-04T21:19:07.795Z,53.94
2023-05-04T21:21:34.105Z,53.59
2023-05-04T21:24:00.507Z,53.82
2023-05-04T21:26:27.381Z,53.56
2023-05-04T21:28:54.258Z,53.59
2023-05-04T21:31:20.669Z,53.86
2023-05-04T21:33:47.228Z,53.95
2023-05-04T21:36:13.862Z,53.73
2023-05-04T21:38:40.515Z,53.64
2023-05-04T21:41:06.945Z,53.73
2023-05-04T21:43:33.292Z,53.61
2023-05-04T21:45:59.656Z,53.62
2023-05-04T21:48:26.317Z,53.84
2023-05-04T21:50:52.744Z,53.57
2023-05-04T21:53:19.640Z,53.98
2023-05-04T21:55:45.986Z,53.74
2023-05-04T21:58:12.411Z,53.90
2023-05-04T22:00:38.811Z,53.68
2023-05-04T22:03:05.716Z,54.00
2023-05-04T22:05:32.280Z,53.77
2023-05-04T22:07:58.596Z,53.79
2023-05-04T22:10:25.622Z,53.69
2023-05-04T22:12:51.991Z,53.95
2023-05-04T22:15:18.884Z,53.97
2023-05-04T22:17:45.422Z,53.71
2023-05-04T22:20:11.827Z,53.88
2023-05-04T22:22:38.580Z,53.92
2023-05-04T22:25:09.051Z,53.89
2023-05-04T22:27:36.020Z,53.84
2023-05-04T22:30:02.377Z,54.08
2023-05-04T22:32:29.211Z,53.81
2023-05-04T22:34:55.711Z,53.88
2023-05-04T22:37:22.060Z,53.82
2023-05-04T22:39:48.371Z,54.02
2023-05-04T22:42:14.989Z,54.06
2023-05-04T22:44:41.890Z,53.89
2023-05-04T22:47:08.264Z,54.06
2023-05-04T22:49:34.752Z,53.87
2023-05-04T22:52:01.438Z,54.12
2023-05-04T22:54:28.255Z,53.89
2023-05-04T22:56:54.682Z,54.07
2023-05-04T22:59:21.131Z,54.12
2023-05-04T23:01:47.521Z,54.09
2023-05-04T23:04:14.173Z,53.93
2023-05-04T23:06:40.565Z,54.15
2023-05-04T23:09:08.104Z,54.05
2023-05-04T23:11:34.673Z,54.03
2023-05-04T23:14:01.411Z,54.09
2023-05-04T23:16:27.951Z,53.95
2023-05-04T23:18:54.322Z,53.88
2023-05-04T23:21:20.985Z,54.08
2023-05-04T23:23:47.328Z,53.88
2023-05-04T23:26:15.338Z,53.95
2023-05-04T23:28:41.716Z,53.80
2023-05-04T23:31:08.172Z,54.07
2023-05-04T23:33:34.669Z,54.17
2023-05-04T23:36:01.034Z,53.89
2023-05-04T23:38:27.566Z,54.03
2023-05-04T23:40:53.918Z,53.99
2023-05-04T23:43:20.458Z,53.93
2023-05-04T23:45:47.099Z,53.86
2023-05-04T23:48:13.452Z,54.17
2023-05-04T23:50:39.899Z,54.14
2023-05-04T23:53:10.312Z,54.02
2023-05-04T23:55:36.589Z,54.25
2023-05-04T23:58:03.075Z,53.97
